createdAt,value
2022-11-18T00:01:09.426Z,63.77
2022-11-18T00:03:37.897Z,63.66
2022-11-18T00:06:06.829Z,63.80
2022-11-18T00:08:34.974Z,63.98
2022-11-18T00:11:08.248Z,63.74
2022-11-18T00:13:53.643Z,63.62
2022-11-18T00:16:21.671Z,63.82
2022-11-18T00:18:49.757Z,63.63
2022-11-18T00:21:17.862Z,63.64
2022-11-18T00:23:45.858Z,63.89
2022-11-18T00:26:16.182Z,63.69
2022-11-18T00:28:44.277Z,63.84
2022-11-18T00:31:14.584Z,64.15
2022-11-18T00:33:42.899Z,63.97
2022-11-18T00:36:12.688Z,64.12
2022-11-18T00:38:41.354Z,63.92
2022-11-18T00:41:11.657Z,63.98
2022-11-18T00:43:40.766Z,64.11
2022-11-18T00:46:10.469Z,64.27
2022-11-18T00:48:38.738Z,63.96
2022-11-18T00:51:11.900Z,64.01
2022-11-18T00:53:39.967Z,64.04
2022-11-18T00:56:08.829Z,64.24
2022-11-18T00:58:37.119Z,64.44
2022-11-18T01:01:06.896Z,63.91
2022-11-18T01:03:35.057Z,63.76
2022-11-18T01:06:03.161Z,64.46
2022-11-18T01:08:31.182Z,64.16
2022-11-18T01:11:19.652Z,64.11
2022-11-18T01:13:49.921Z,64.22
2022-11-18T01:16:22.106Z,63.84
2022-11-18T01:18:50.402Z,64.00
2022-11-18T01:21:18.858Z,64.12
2022-11-18T01:23:46.956Z,64.02
2022-11-18T01:26:16.802Z,63.69
2022-11-18T01:28:45.471Z,63.47
2022-11-18T01:31:15.407Z,64.21
2022-11-18T01:33:45.382Z,63.87
2022-11-18T01:36:17.945Z,63.58
2022-11-18T01:38:46.246Z,62.79
2022-11-18T01:41:14.611Z,63.34
2022-11-18T01:43:52.533Z,63.42
2022-11-18T01:46:21.493Z,63.02
2022-11-18T01:48:55.092Z,63.21
2022-11-18T01:51:27.255Z,64.15
2022-11-18T01:54:01.064Z,63.11
2022-11-18T01:56:34.278Z,63.16
2022-11-18T01:59:07.525Z,62.71
2022-11-18T02:01:35.713Z,63.19
2022-11-18T02:04:05.516Z,62.94
2022-11-18T02:06:34.402Z,63.22
2022-11-18T02:09:02.738Z,63.19
2022-11-18T02:11:49.572Z,63.10
2022-11-18T02:14:19.717Z,63.11
2022-11-18T02:17:01.530Z,62.67
2022-11-18T02:20:00.721Z,62.58
2022-11-18T02:22:46.451Z,62.50
2022-11-18T02:25:21.405Z,62.79
2022-11-18T02:28:25.864Z,62.72
2022-11-18T02:31:01.842Z,62.55
2022-11-18T02:33:36.628Z,63.06
2022-11-18T02:36:11.050Z,63.06
2022-11-18T02:38:44.021Z,62.78
2022-11-18T02:41:15.813Z,62.86
2022-11-18T02:43:48.854Z,62.15
2022-11-18T02:46:22.058Z,62.60
2022-11-18T02:48:52.722Z,62.53
2022-11-18T02:51:26.309Z,62.41
2022-11-18T02:53:57.758Z,62.60
2022-11-18T02:56:27.789Z,62.72
2022-11-18T02:58:55.874Z,62.51
2022-11-18T03:01:29.612Z,62.40
2022-11-18T03:03:57.868Z,62.34
2022-11-18T03:06:30.925Z,62.23
2022-11-18T03:09:09.442Z,62.15
2022-11-18T03:11:44.246Z,62.27
2022-11-18T03:14:22.918Z,62.18
2022-11-18T03:17:00.673Z,62.36
2022-11-18T03:19:47.402Z,62.03
2022-11-18T03:22:22.750Z,62.42
2022-11-18T03:25:00.619Z,62.35
2022-11-18T03:27:33.135Z,62.48
2022-11-18T03:30:06.994Z,62.48
2022-11-18T03:32:41.442Z,62.54
2022-11-18T03:35:14.010Z,62.44
2022-11-18T03:37:44.470Z,63.05
2022-11-18T03:40:18.818Z,63.05
2022-11-18T03:42:50.847Z,62.87
2022-11-18T03:45:23.337Z,62.82
2022-11-18T03:47:56.946Z,62.74
2022-11-18T03:50:30.754Z,62.79
2022-11-18T03:52:59.926Z,62.82
2022-11-18T03:55:32.438Z,62.63
2022-11-18T03:58:06.350Z,62.61
2022-11-18T04:00:38.646Z,62.80
2022-11-18T04:03:08.309Z,62.82
2022-11-18T04:05:40.518Z,62.58
2022-11-18T04:08:13.093Z,62.52
2022-11-18T04:10:47.075Z,62.89
2022-11-18T04:13:19.657Z,62.95
2022-11-18T04:15:47.770Z,62.95
2022-11-18T04:18:17.174Z,62.50
2022-11-18T04:20:45.250Z,62.49
2022-11-18T04:23:13.510Z,62.90
2022-11-18T04:25:41.653Z,62.95
2022-11-18T04:28:10.261Z,63.09
2022-11-18T04:30:38.386Z,63.14
2022-11-18T04:33:06.498Z,62.90
2022-11-18T04:35:35.879Z,62.79
2022-11-18T04:38:05.028Z,62.82
2022-11-18T04:40:33.355Z,62.66
2022-11-18T04:43:01.387Z,63.12
2022-11-18T04:45:29.596Z,62.88
2022-11-18T04:48:03.066Z,62.76
2022-11-18T04:50:31.755Z,62.62
2022-11-18T04:53:01.153Z,62.99
2022-11-18T04:55:29.211Z,63.30
2022-11-18T04:57:57.306Z,63.31
2022-11-18T05:00:25.368Z,63.39
2022-11-18T05:02:53.402Z,63.30
2022-11-18T05:05:21.473Z,63.22
2022-11-18T05:07:49.561Z,63.15
2022-11-18T05:10:19.294Z,63.34
2022-11-18T05:12:48.991Z,63.18
2022-11-18T05:15:17.402Z,63.37
2022-11-18T05:17:45.488Z,63.39
2022-11-18T05:20:14.205Z,63.37
2022-11-18T05:22:42.538Z,63.28
2022-11-18T05:25:11.164Z,62.99
2022-11-18T05:27:40.578Z,62.62
2022-11-18T05:30:09.678Z,62.60
2022-11-18T05:32:37.725Z,62.29
2022-11-18T05:35:06.411Z,62.27
2022-11-18T05:37:34.797Z,62.36
2022-11-18T05:40:02.846Z,62.19
2022-11-18T05:42:48.225Z,62.18
2022-11-18T05:45:19.420Z,62.47
2022-11-18T05:48:04.671Z,62.16
2022-11-18T05:50:34.081Z,62.79
2022-11-18T05:53:02.905Z,62.60
2022-11-18T05:55:36.628Z,62.37
2022-11-18T05:58:04.644Z,62.55
2022-11-18T06:00:34.488Z,62.86
2022-11-18T06:03:03.569Z,62.61
2022-11-18T06:05:31.641Z,62.53
2022-11-18T06:07:59.768Z,62.53
2022-11-18T06:10:34.009Z,62.31
2022-11-18T06:13:05.851Z,62.22
2022-11-18T06:15:40.073Z,62.24
2022-11-18T06:18:11.259Z,62.44
2022-11-18T06:20:42.646Z,62.42
2022-11-18T06:23:10.785Z,62.42
2022-11-18T06:25:39.842Z,62.31
2022-11-18T06:28:08.246Z,62.34
2022-11-18T06:30:37.634Z,62.06
2022-11-18T06:33:05.713Z,62.35
2022-11-18T06:35:33.753Z,62.39
2022-11-18T06:38:01.825Z,62.28
2022-11-18T06:40:34.448Z,62.32
2022-11-18T06:43:24.268Z,62.62
2022-11-18T06:46:09.314Z,62.26
2022-11-18T06:48:37.614Z,62.62
2022-11-18T06:51:06.374Z,62.50
2022-11-18T06:53:35.274Z,62.29
2022-11-18T06:56:04.757Z,62.95
2022-11-18T06:58:32.848Z,63.05
2022-11-18T07:01:10.445Z,62.56
2022-11-18T07:03:38.606Z,63.10
2022-11-18T07:06:07.201Z,63.34
2022-11-18T07:08:36.229Z,63.36
2022-11-18T07:11:05.277Z,63.50
2022-11-18T07:13:33.815Z,63.37
2022-11-18T07:16:08.426Z,63.08
2022-11-18T07:18:38.514Z,63.76
2022-11-18T07:21:08.974Z,63.63
2022-11-18T07:23:37.227Z,63.36
2022-11-18T07:26:05.925Z,63.44
2022-11-18T07:28:34.358Z,63.47
2022-11-18T07:31:03.796Z,63.52
2022-11-18T07:33:34.713Z,63.40
2022-11-18T07:36:03.823Z,63.40
2022-11-18T07:38:32.071Z,63.20
2022-11-18T07:41:06.054Z,63.27
2022-11-18T07:43:35.075Z,63.43
2022-11-18T07:46:11.679Z,62.95
2022-11-18T07:48:41.443Z,63.05
2022-11-18T07:51:09.755Z,63.18
2022-11-18T07:53:38.418Z,63.13
2022-11-18T07:56:07.540Z,63.24
2022-11-18T07:58:35.639Z,63.16
2022-11-18T08:01:09.640Z,63.05
2022-11-18T08:03:38.241Z,63.39
2022-11-18T08:06:10.519Z,62.87
2022-11-18T08:08:38.891Z,62.63
2022-11-18T08:11:09.444Z,62.53
2022-11-18T08:13:37.598Z,62.43
2022-11-18T08:16:06.900Z,62.37
2022-11-18T08:18:35.197Z,62.18
2022-11-18T08:21:03.970Z,62.24
2022-11-18T08:23:37.497Z,62.45
2022-11-18T08:26:11.791Z,62.72
2022-11-18T08:28:39.945Z,62.62
2022-11-18T08:31:12.113Z,62.82
2022-11-18T08:33:40.389Z,62.37
2022-11-18T08:36:09.806Z,62.21
2022-11-18T08:38:39.294Z,62.15
2022-11-18T08:41:07.809Z,62.28
2022-11-18T08:43:37.273Z,62.14
2022-11-18T08:46:05.343Z,62.22
2022-11-18T08:48:33.422Z,62.12
2022-11-18T08:51:02.277Z,62.13
2022-11-18T08:53:30.489Z,62.12
2022-11-18T08:56:01.722Z,62.02
2022-11-18T08:58:29.938Z,62.05
2022-11-18T09:00:58.097Z,62.13
2022-11-18T09:03:26.189Z,62.11
2022-11-18T09:05:54.182Z,62.01
2022-11-18T09:08:26.415Z,61.96
2022-11-18T09:10:54.478Z,61.83
2022-11-18T09:14:20.482Z,61.79
2022-11-18T09:16:12.510Z,61.70
2022-11-18T09:18:40.613Z,61.75
2022-11-18T09:21:10.662Z,61.67
2022-11-18T09:23:39.670Z,61.57
2022-11-18T09:26:09.560Z,61.36
2022-11-18T09:28:39.202Z,61.28
2022-11-18T09:31:08.557Z,61.28
2022-11-18T09:33:37.791Z,61.15
2022-11-18T09:36:07.128Z,61.12
2022-11-18T09:38:35.131Z,61.16
2022-11-18T09:41:09.310Z,61.42
2022-11-18T09:43:50.535Z,61.02
2022-11-18T09:46:27.707Z,60.74
2022-11-18T09:49:21.462Z,60.34
2022-11-18T09:51:51.774Z,61.28
2022-11-18T09:54:23.106Z,61.46
2022-11-18T09:56:53.486Z,60.91
2022-11-18T09:59:26.101Z,60.69
2022-11-18T10:01:57.689Z,60.72
2022-11-18T10:04:25.837Z,60.68
2022-11-18T10:06:53.943Z,61.40
2022-11-18T10:09:31.647Z,60.46
2022-11-18T10:12:10.084Z,60.11
2022-11-18T10:14:53.430Z,60.06
2022-11-18T10:17:32.735Z,60.29
2022-11-18T10:20:15.644Z,59.95
2022-11-18T10:22:49.508Z,60.18
2022-11-18T10:25:19.162Z,60.51
2022-11-18T10:27:49.527Z,60.91
2022-11-18T10:30:21.179Z,60.89
2022-11-18T10:33:00.467Z,60.67
2022-11-18T10:35:31.139Z,60.97
2022-11-18T10:38:08.992Z,60.82
2022-11-18T10:40:41.358Z,60.93
2022-11-18T10:43:11.453Z,60.76
2022-11-18T10:45:40.987Z,60.35
2022-11-18T10:48:11.326Z,60.07
2022-11-18T10:50:41.130Z,60.38
2022-11-18T10:53:30.393Z,60.29
2022-11-18T10:56:00.492Z,60.61
2022-11-18T10:58:32.346Z,60.57
2022-11-18T11:01:09.468Z,60.25
2022-11-18T11:03:39.927Z,60.51
2022-11-18T11:06:30.705Z,60.07
2022-11-18T11:09:05.449Z,60.74
2022-11-18T11:11:35.522Z,60.89
2022-11-18T11:14:12.908Z,60.67
2022-11-18T11:16:48.171Z,60.54
2022-11-18T11:19:21.409Z,60.74
2022-11-18T11:21:49.685Z,60.86
2022-11-18T11:24:17.827Z,60.94
2022-11-18T11:30:03.341Z,60.54
2022-11-18T11:32:51.813Z,60.35
2022-11-18T11:35:24.313Z,60.86
2022-11-18T11:37:55.164Z,60.57
2022-11-18T11:40:32.699Z,60.22
2022-11-18T11:43:10.498Z,60.28
2022-11-18T11:45:47.975Z,60.36
2022-11-18T11:48:32.399Z,60.45
2022-11-18T11:51:05.144Z,60.30
2022-11-18T11:53:59.060Z,60.13
2022-11-18T11:56:35.122Z,60.60
2022-11-18T11:59:21.300Z,60.64
2022-11-18T12:02:16.342Z,60.41
2022-11-18T12:04:50.805Z,60.44
2022-11-18T12:07:22.988Z,60.54
2022-11-18T12:10:09.152Z,60.25
2022-11-18T12:12:45.340Z,60.12
2022-11-18T12:15:36.726Z,60.06
2022-11-18T12:18:13.573Z,60.24
2022-11-18T12:20:45.939Z,60.19
2022-11-18T12:23:19.286Z,60.22
2022-11-18T12:26:03.140Z,59.82
2022-11-18T12:28:34.390Z,60.13
2022-11-18T12:31:28.489Z,59.87
2022-11-18T12:33:58.625Z,59.67
2022-11-18T12:36:29.540Z,59.76
2022-11-18T12:38:58.999Z,59.75
2022-11-18T12:42:13.419Z,59.32
2022-11-18T12:44:43.316Z,60.26
2022-11-18T12:47:12.580Z,60.32
2022-11-18T12:50:12.659Z,60.36
2022-11-18T12:52:50.205Z,60.38
2022-11-18T12:55:23.555Z,60.63
2022-11-18T12:57:51.692Z,60.60
2022-11-18T13:00:31.169Z,60.38
2022-11-18T13:03:01.300Z,60.59
2022-11-18T13:05:31.709Z,60.46
2022-11-18T13:08:14.341Z,60.31
2022-11-18T13:10:54.774Z,59.96
2022-11-18T13:13:27.377Z,60.14
2022-11-18T13:16:25.913Z,60.17
2022-11-18T13:18:55.107Z,59.97
2022-11-18T13:21:43.087Z,60.31
2022-11-18T13:24:15.124Z,60.08
2022-11-18T13:26:45.010Z,60.12
2022-11-18T13:29:30.612Z,59.80
2022-11-18T13:32:10.655Z,59.86
2022-11-18T13:34:47.005Z,59.62
2022-11-18T13:37:19.133Z,59.83
2022-11-18T13:39:49.832Z,59.28
2022-11-18T13:42:21.070Z,59.83
2022-11-18T13:44:55.194Z,59.75
2022-11-18T13:47:28.804Z,59.77
2022-11-18T13:50:05.826Z,59.80
2022-11-18T13:52:37.926Z,59.77
2022-11-18T13:55:17.430Z,59.51
2022-11-18T13:57:49.391Z,59.53
2022-11-18T14:00:25.919Z,58.88
2022-11-18T14:03:00.829Z,59.35
2022-11-18T14:05:29.377Z,59.20
2022-11-18T14:08:02.188Z,59.42
2022-11-18T14:10:39.119Z,59.45
2022-11-18T14:13:21.550Z,58.89
2022-11-18T14:15:49.665Z,59.12
2022-11-18T14:18:22.489Z,59.23
2022-11-18T14:20:56.029Z,59.12
2022-11-18T14:23:29.744Z,59.19
2022-11-18T14:26:00.653Z,59.18
2022-11-18T14:28:33.783Z,59.06
2022-11-18T14:31:08.087Z,58.95
2022-11-18T14:33:38.083Z,58.80
2022-11-18T14:36:12.351Z,58.60
2022-11-18T14:38:57.981Z,58.63
2022-11-18T14:41:49.679Z,58.76
2022-11-18T14:44:18.786Z,58.57
2022-11-18T14:46:49.791Z,58.84
2022-11-18T14:49:21.987Z,58.80
2022-11-18T14:51:50.680Z,58.62
2022-11-18T14:54:25.920Z,58.55
2022-11-18T14:56:59.204Z,58.58
2022-11-18T14:59:27.305Z,58.80
2022-11-18T15:01:56.531Z,58.58
2022-11-18T15:04:25.620Z,58.61
2022-11-18T15:06:53.952Z,58.74
2022-11-18T15:09:22.165Z,58.48
2022-11-18T15:11:50.284Z,58.14
2022-11-18T15:14:19.969Z,58.61
2022-11-18T15:16:48.463Z,58.38
2022-11-18T15:19:17.539Z,58.45
2022-11-18T15:21:46.685Z,58.19
2022-11-18T15:24:14.957Z,58.18
2022-11-18T15:26:46.803Z,58.28
2022-11-18T15:29:18.379Z,58.46
2022-11-18T15:31:48.582Z,58.04
2022-11-18T15:34:18.241Z,58.10
2022-11-18T15:36:46.669Z,57.93
2022-11-18T15:39:14.796Z,58.03
2022-11-18T15:41:43.888Z,58.11
2022-11-18T15:44:12.573Z,57.89
2022-11-18T15:46:41.137Z,57.92
2022-11-18T15:49:13.856Z,57.71
2022-11-18T15:51:42.275Z,57.81
2022-11-18T15:54:10.269Z,57.73
2022-11-18T15:56:39.769Z,57.67
2022-11-18T15:59:10.549Z,57.80
2022-11-18T16:01:40.647Z,57.69
2022-11-18T16:04:12.117Z,57.61
2022-11-18T16:06:43.334Z,57.72
2022-11-18T16:09:12.471Z,57.63
2022-11-18T16:11:58.076Z,57.48
2022-11-18T16:14:26.383Z,57.35
2022-11-18T16:16:56.604Z,57.24
2022-11-18T16:19:27.386Z,57.25
2022-11-18T16:21:57.339Z,57.18
2022-11-18T16:24:27.226Z,57.10
2022-11-18T16:26:55.600Z,57.29
2022-11-18T16:29:24.287Z,56.76
2022-11-18T16:31:54.891Z,57.19
2022-11-18T16:34:26.240Z,57.12
2022-11-18T16:36:55.920Z,57.06
2022-11-18T16:39:26.216Z,56.78
2022-11-18T16:41:57.599Z,56.92
2022-11-18T16:44:27.714Z,56.87
2022-11-18T16:46:57.481Z,56.85
2022-11-18T16:49:28.479Z,58.90
2022-11-18T16:51:58.096Z,60.21
2022-11-18T16:54:28.058Z,60.56
2022-11-18T16:56:57.932Z,60.26
2022-11-18T16:59:27.082Z,60.33
2022-11-18T17:01:56.668Z,60.42
2022-11-18T17:04:27.328Z,59.90
2022-11-18T17:06:56.461Z,60.41
2022-11-18T17:09:25.703Z,57.35
2022-11-18T17:11:55.253Z,56.42
2022-11-18T17:14:23.815Z,56.21
2022-11-18T17:16:53.166Z,55.92
2022-11-18T17:19:23.375Z,55.91
2022-11-18T17:21:53.434Z,55.61
2022-11-18T17:24:24.125Z,55.57
2022-11-18T17:26:53.071Z,55.43
2022-11-18T17:29:21.679Z,55.29
2022-11-18T17:31:50.187Z,55.26
2022-11-18T17:34:18.988Z,55.53
2022-11-18T17:36:47.210Z,55.21
2022-11-18T17:39:17.601Z,55.31
2022-11-18T17:42:03.394Z,55.26
2022-11-18T17:44:31.440Z,55.58
2022-11-18T17:46:59.413Z,55.23
2022-11-18T17:49:27.448Z,55.42
2022-11-18T17:51:55.527Z,54.92
2022-11-18T17:54:25.129Z,55.29
2022-11-18T17:56:53.341Z,55.16
2022-11-18T17:59:23.102Z,54.12
2022-11-18T18:01:57.537Z,54.11
2022-11-18T18:04:27.285Z,53.65
2022-11-18T18:06:56.173Z,53.64
2022-11-18T18:09:31.456Z,53.62
2022-11-18T18:12:00.692Z,53.48
2022-11-18T18:14:27.828Z,53.20
2022-11-18T18:16:55.938Z,52.73
2022-11-18T18:19:24.786Z,52.32
2022-11-18T18:21:53.401Z,52.27
2022-11-18T18:24:22.238Z,51.74
2022-11-18T18:26:52.005Z,51.50
2022-11-18T18:29:20.168Z,51.51
2022-11-18T18:31:48.252Z,51.11
2022-11-18T18:34:16.773Z,50.50
2022-11-18T18:36:45.411Z,50.25
2022-11-18T18:39:13.521Z,49.79
2022-11-18T18:41:41.661Z,49.67
2022-11-18T18:44:15.356Z,49.09
2022-11-18T18:46:45.571Z,48.53
2022-11-18T18:49:20.198Z,48.31
2022-11-18T18:51:50.155Z,48.11
2022-11-18T18:54:20.652Z,48.31
2022-11-18T18:56:48.965Z,47.99
2022-11-18T18:59:18.386Z,48.21
2022-11-18T19:01:46.578Z,47.97
2022-11-18T19:04:15.892Z,47.62
2022-11-18T19:06:53.625Z,47.47
2022-11-18T19:09:26.519Z,47.57
2022-11-18T19:12:12.132Z,47.53
2022-11-18T19:14:41.850Z,47.74
2022-11-18T19:17:11.957Z,47.58
2022-11-18T19:19:58.971Z,47.70
2022-11-18T19:22:27.288Z,47.18
2022-11-18T19:24:55.605Z,46.67
2022-11-18T19:27:24.710Z,46.70
2022-11-18T19:29:54.127Z,46.75
2022-11-18T19:32:22.200Z,46.79
2022-11-18T19:34:50.250Z,46.57
2022-11-18T19:37:18.323Z,46.44
2022-11-18T19:39:46.720Z,46.47
2022-11-18T19:42:14.823Z,46.23
2022-11-18T19:44:42.834Z,46.27
2022-11-18T19:47:12.235Z,46.10
2022-11-18T19:49:40.239Z,46.25
2022-11-18T19:52:08.237Z,46.14
2022-11-18T19:54:36.365Z,45.94
2022-11-18T19:57:04.682Z,45.97
2022-11-18T19:59:32.712Z,46.03
2022-11-18T20:02:00.715Z,45.83
2022-11-18T20:04:30.264Z,45.70
2022-11-18T20:06:58.346Z,45.82
2022-11-18T20:09:26.566Z,45.88
2022-11-18T20:11:55.678Z,45.88
2022-11-18T20:14:23.897Z,45.67
2022-11-18T20:16:52.682Z,45.68
2022-11-18T20:19:21.091Z,45.22
2022-11-18T20:21:50.695Z,45.51
2022-11-18T20:24:19.831Z,45.06
2022-11-18T20:26:48.706Z,45.35
2022-11-18T20:29:17.174Z,45.19
2022-11-18T20:31:45.579Z,45.34
2022-11-18T20:34:15.313Z,45.06
2022-11-18T20:36:43.767Z,44.90
2022-11-18T20:39:15.695Z,45.03
2022-11-18T20:42:03.963Z,44.96
2022-11-18T20:44:32.015Z,45.08
2022-11-18T20:47:00.206Z,44.79
2022-11-18T20:49:28.242Z,44.83
2022-11-18T20:51:56.278Z,44.84
2022-11-18T20:54:25.726Z,44.83
2022-11-18T20:56:53.824Z,44.59
2022-11-18T20:59:21.854Z,44.24
2022-11-18T21:01:50.090Z,44.42
2022-11-18T21:04:18.279Z,44.67
2022-11-18T21:06:46.485Z,44.70
2022-11-18T21:09:14.567Z,44.62
2022-11-18T21:11:43.947Z,44.70
2022-11-18T21:14:24.315Z,44.40
2022-11-18T21:16:54.088Z,44.25
2022-11-18T21:19:22.503Z,44.44
2022-11-18T21:21:52.651Z,44.20
2022-11-18T21:24:22.985Z,44.38
2022-11-18T21:26:54.699Z,44.71
2022-11-18T21:29:24.457Z,44.92
2022-11-18T21:31:53.097Z,44.99
2022-11-18T21:34:22.271Z,44.92
2022-11-18T21:36:54.717Z,45.16
2022-11-18T21:39:23.913Z,45.06
2022-11-18T21:41:57.629Z,45.06
2022-11-18T21:44:27.896Z,45.43
2022-11-18T21:46:56.725Z,45.51
2022-11-18T21:49:24.750Z,45.36
2022-11-18T21:51:52.769Z,45.41
2022-11-18T21:54:20.822Z,45.41
2022-11-18T21:56:49.327Z,45.66
2022-11-18T21:59:19.205Z,45.77
2022-11-18T22:01:47.431Z,45.84
2022-11-18T22:04:35.860Z,45.75
2022-11-18T22:07:05.297Z,45.95
2022-11-18T22:09:36.837Z,46.11
2022-11-18T22:12:06.965Z,46.22
2022-11-18T22:14:37.422Z,46.33
2022-11-18T22:17:06.010Z,46.15
2022-11-18T22:19:34.389Z,46.55
2022-11-18T22:22:02.780Z,46.53
2022-11-18T22:24:31.064Z,46.51
2022-11-18T22:26:59.276Z,46.54
2022-11-18T22:29:27.293Z,46.83
2022-11-18T22:31:57.256Z,46.85
2022-11-18T22:34:25.322Z,47.02
2022-11-18T22:36:53.397Z,47.26
2022-11-18T22:39:21.835Z,47.33
2022-11-18T22:42:07.403Z,47.38
2022-11-18T22:44:35.960Z,47.50
2022-11-18T22:47:05.421Z,47.60
2022-11-18T22:49:33.623Z,47.70
2022-11-18T22:52:01.916Z,47.77
2022-11-18T22:54:39.347Z,47.91
2022-11-18T22:57:08.806Z,48.41
2022-11-18T22:59:37.090Z,49.02
2022-11-18T23:02:07.507Z,49.21
2022-11-18T23:04:35.708Z,49.40
2022-11-18T23:07:03.885Z,49.48
2022-11-18T23:09:32.010Z,49.52
2022-11-18T23:12:17.508Z,49.50
2022-11-18T23:14:45.556Z,49.67
2022-11-18T23:17:15.998Z,49.71
2022-11-18T23:19:44.278Z,49.24
2022-11-18T23:22:12.892Z,49.23
2022-11-18T23:24:41.359Z,49.25
2022-11-18T23:27:09.462Z,49.37
2022-11-18T23:29:37.544Z,50.07
2022-11-18T23:32:06.239Z,50.37
2022-11-18T23:34:35.609Z,50.52
2022-11-18T23:37:03.673Z,50.74
2022-11-18T23:39:31.697Z,50.96
2022-11-18T23:41:59.782Z,51.03
2022-11-18T23:44:41.618Z,51.14
2022-11-18T23:47:09.692Z,51.35
2022-11-18T23:49:39.224Z,51.31
2022-11-18T23:52:07.235Z,51.46
2022-11-18T23:54:35.260Z,51.46
2022-11-18T23:57:05.359Z,51.43
2022-11-18T23:59:34.214Z,51.27
